createdAt,value
2022-11-17T00:04:25.375Z,30.50
2022-11-17T00:07:11.800Z,29.45
2022-11-17T00:09:57.588Z,29.35
2022-11-17T00:13:02.474Z,27.95
2022-11-17T00:15:48.709Z,27.58
2022-11-17T00:18:53.073Z,22.15
2022-11-17T00:21:44.536Z,17.92
2022-11-17T00:24:31.270Z,15.18
2022-11-17T00:27:19.072Z,14.15
2022-11-17T00:30:06.165Z,15.77
2022-11-17T00:33:11.747Z,12.25
2022-11-17T00:35:57.598Z,12.50
2022-11-17T00:38:43.193Z,12.05
2022-11-17T00:41:29.157Z,14.18
2022-11-17T00:44:15.294Z,11.10
2022-11-17T00:47:01.417Z,11.20
2022-11-17T00:49:47.175Z,10.57
2022-11-17T00:52:33.239Z,9.82
2022-11-17T00:55:19.324Z,12.90
2022-11-17T00:58:05.264Z,11.73
2022-11-17T01:00:51.143Z,9.35
2022-11-17T01:03:37.415Z,15.57
2022-11-17T01:06:23.576Z,15.85
2022-11-17T01:09:27.426Z,17.00
2022-11-17T01:12:13.112Z,24.70
2022-11-17T01:14:58.721Z,21.63
2022-11-17T01:17:44.624Z,19.55
2022-11-17T01:20:30.387Z,15.32
2022-11-17T01:23:16.490Z,15.10
2022-11-17T01:26:19.727Z,18.80
2022-11-17T01:29:06.786Z,18.00
2022-11-17T01:31:52.677Z,15.02
2022-11-17T01:34:38.899Z,20.90
2022-11-17T01:37:24.857Z,20.00
2022-11-17T01:40:13.159Z,17.48
2022-11-17T01:42:59.599Z,18.60
2022-11-17T01:45:45.901Z,17.80
2022-11-17T01:48:31.791Z,15.13
2022-11-17T01:51:17.975Z,17.48
2022-11-17T01:54:03.908Z,12.65
2022-11-17T01:56:52.162Z,22.95
2022-11-17T01:59:37.905Z,16.23
2022-11-17T02:02:23.866Z,16.35
2022-11-17T02:05:17.100Z,22.38
2022-11-17T02:08:05.318Z,20.15
2022-11-17T02:10:52.136Z,22.45
2022-11-17T02:13:38.777Z,24.73
2022-11-17T02:16:24.848Z,21.65
2022-11-17T02:19:12.151Z,23.25
2022-11-17T02:22:20.222Z,26.48
2022-11-17T02:25:43.262Z,23.80
2022-11-17T02:28:35.049Z,28.25
2022-11-17T02:31:52.262Z,20.42
2022-11-17T02:34:54.279Z,18.88
2022-11-17T02:37:59.206Z,19.90
2022-11-17T02:40:50.201Z,18.23
2022-11-17T02:44:04.513Z,14.50
2022-11-17T02:47:02.551Z,14.05
2022-11-17T02:50:02.317Z,20.15
2022-11-17T02:52:48.435Z,16.75
2022-11-17T02:55:37.963Z,16.35
2022-11-17T02:58:23.900Z,13.05
2022-11-17T03:01:33.455Z,14.15
2022-11-17T03:04:22.151Z,16.02
2022-11-17T03:07:14.833Z,17.35
2022-11-17T03:10:22.466Z,14.68
2022-11-17T03:13:46.689Z,18.63
2022-11-17T03:16:36.453Z,18.02
2022-11-17T03:19:31.976Z,22.90
2022-11-17T03:22:24.372Z,22.63
2022-11-17T03:25:15.263Z,21.63
2022-11-17T03:28:05.859Z,16.77
2022-11-17T03:30:52.947Z,17.35
2022-11-17T03:33:40.815Z,17.63
2022-11-17T03:36:31.193Z,17.77
2022-11-17T03:39:23.707Z,18.95
2022-11-17T03:42:30.954Z,19.77
2022-11-17T03:45:23.077Z,10.65
2022-11-17T03:48:14.524Z,17.52
2022-11-17T03:51:22.126Z,31.02
2022-11-17T03:54:09.634Z,18.23
2022-11-17T03:57:01.531Z,20.58
2022-11-17T04:00:06.948Z,13.52
2022-11-17T04:02:59.575Z,14.70
2022-11-17T04:05:45.853Z,10.57
2022-11-17T04:08:32.020Z,11.50
2022-11-17T04:11:36.276Z,6.85
2022-11-17T04:14:40.932Z,5.45
2022-11-17T04:17:27.218Z,4.18
2022-11-17T04:20:13.201Z,5.70
2022-11-17T04:23:08.387Z,4.97
2022-11-17T04:26:14.618Z,3.22
2022-11-17T04:29:00.422Z,4.80
2022-11-17T04:31:46.274Z,4.03
2022-11-17T04:34:31.949Z,1.63
2022-11-17T04:37:17.698Z,2.50
2022-11-17T04:40:03.956Z,3.35
2022-11-17T04:42:49.619Z,2.65
2022-11-17T04:45:35.361Z,0.57
2022-11-17T04:48:21.021Z,4.05
2022-11-17T04:51:06.749Z,4.13
2022-11-17T04:53:52.730Z,1.90
2022-11-17T04:56:38.998Z,1.92
2022-11-17T04:59:25.393Z,67.35
2022-11-17T05:02:11.201Z,38.80
2022-11-17T05:04:56.974Z,14.52
2022-11-17T05:07:43.167Z,9.27
2022-11-17T05:10:47.513Z,5.40
2022-11-17T05:13:33.852Z,4.47
2022-11-17T05:16:39.252Z,4.10
2022-11-17T05:19:27.072Z,5.53
2022-11-17T05:22:36.621Z,11.15
2022-11-17T05:25:22.625Z,5.40
2022-11-17T05:28:08.256Z,2.17
2022-11-17T05:30:53.980Z,7.63
2022-11-17T05:33:40.757Z,9.68
2022-11-17T05:36:27.746Z,4.25
2022-11-17T05:39:16.054Z,2.72
2022-11-17T05:42:02.023Z,6.20
2022-11-17T05:44:50.342Z,28.63
2022-11-17T05:47:36.312Z,5.80
2022-11-17T05:50:22.017Z,4.13
2022-11-17T05:53:07.802Z,8.45
2022-11-17T05:56:08.181Z,12.02
2022-11-17T05:59:08.194Z,31.83
2022-11-17T06:02:00.692Z,11.20
2022-11-17T06:04:49.383Z,22.00
2022-11-17T06:07:36.833Z,14.23
2022-11-17T06:10:23.308Z,31.40
2022-11-17T06:13:09.107Z,15.32
2022-11-17T06:16:02.699Z,16.15
2022-11-17T06:18:54.303Z,10.30
2022-11-17T06:22:09.895Z,16.42
2022-11-17T06:24:46.858Z,18.13
2022-11-17T06:27:33.320Z,20.50
2022-11-17T06:30:19.371Z,20.85
2022-11-17T06:33:07.732Z,14.05
2022-11-17T06:35:53.469Z,22.00
2022-11-17T06:38:40.776Z,22.20
2022-11-17T06:41:26.908Z,25.25
2022-11-17T06:44:12.746Z,20.60
2022-11-17T06:46:58.541Z,16.92
2022-11-17T06:49:44.649Z,13.93
2022-11-17T06:52:30.463Z,12.98
2022-11-17T06:55:16.289Z,7.88
2022-11-17T06:58:06.982Z,9.80
2022-11-17T07:00:53.202Z,14.82
2022-11-17T07:03:40.932Z,10.60
2022-11-17T07:06:27.049Z,6.55
2022-11-17T07:09:12.641Z,7.25
2022-11-17T07:11:58.429Z,8.57
2022-11-17T07:14:44.936Z,6.75
2022-11-17T07:17:32.124Z,9.40
2022-11-17T07:20:18.577Z,7.05
2022-11-17T07:23:04.500Z,8.15
2022-11-17T07:25:52.942Z,10.05
2022-11-17T07:28:39.023Z,6.18
2022-11-17T07:31:25.027Z,4.90
2022-11-17T07:34:11.047Z,10.18
2022-11-17T07:36:56.785Z,2.85
2022-11-17T07:39:42.477Z,10.23
2022-11-17T07:42:28.112Z,7.40
2022-11-17T07:45:14.027Z,6.40
2022-11-17T07:48:01.828Z,3.17
2022-11-17T07:50:47.512Z,7.40
2022-11-17T07:53:35.208Z,11.43
2022-11-17T07:56:20.898Z,10.73
2022-11-17T07:59:06.888Z,10.10
2022-11-17T08:01:53.006Z,18.60
2022-11-17T08:04:39.185Z,11.50
2022-11-17T08:07:24.984Z,8.13
2022-11-17T08:10:11.375Z,11.05
2022-11-17T08:12:58.381Z,5.18
2022-11-17T08:15:44.375Z,13.60
2022-11-17T08:18:30.863Z,7.53
2022-11-17T08:21:16.971Z,9.00
2022-11-17T08:24:06.263Z,11.55
2022-11-17T08:26:55.454Z,15.07
2022-11-17T08:29:41.118Z,19.25
2022-11-17T08:32:26.809Z,9.90
2022-11-17T08:35:12.745Z,10.55
2022-11-17T08:37:58.735Z,9.23
2022-11-17T08:40:46.054Z,6.60
2022-11-17T08:43:32.167Z,14.23
2022-11-17T08:46:18.112Z,8.52
2022-11-17T08:49:04.248Z,14.40
2022-11-17T08:51:49.990Z,12.65
2022-11-17T08:54:35.754Z,11.30
2022-11-17T08:57:22.447Z,15.77
2022-11-17T09:00:08.857Z,22.95
2022-11-17T09:02:54.808Z,42.75
2022-11-17T09:05:45.215Z,16.45
2022-11-17T09:08:45.439Z,24.95
2022-11-17T09:11:37.735Z,15.18
2022-11-17T09:14:23.426Z,20.65
2022-11-17T09:17:09.411Z,21.95
2022-11-17T09:19:55.092Z,20.83
2022-11-17T09:22:40.738Z,33.47
2022-11-17T09:25:26.626Z,24.70
2022-11-17T09:28:12.213Z,21.85
2022-11-17T09:31:00.390Z,16.38
2022-11-17T09:33:47.494Z,18.17
2022-11-17T09:36:33.928Z,17.73
2022-11-17T09:39:19.771Z,32.88
2022-11-17T09:42:05.844Z,37.97
2022-11-17T09:45:04.716Z,27.35
2022-11-17T09:48:12.628Z,109.32
2022-11-17T09:51:08.657Z,18.52
2022-11-17T09:53:58.006Z,25.60
2022-11-17T09:56:46.178Z,23.15
2022-11-17T09:59:32.535Z,27.77
2022-11-17T10:02:18.117Z,16.73
2022-11-17T10:05:03.896Z,12.05
2022-11-17T10:07:51.805Z,15.00
2022-11-17T10:10:44.840Z,8.90
2022-11-17T10:13:33.345Z,10.52
2022-11-17T10:16:19.735Z,7.90
2022-11-17T10:19:22.475Z,13.18
2022-11-17T10:22:09.257Z,11.90
2022-11-17T10:24:55.579Z,8.35
2022-11-17T10:27:44.126Z,7.65
2022-11-17T10:30:30.309Z,13.05
2022-11-17T10:33:18.793Z,13.30
2022-11-17T10:36:08.130Z,9.52
2022-11-17T10:38:55.601Z,12.90
2022-11-17T10:41:43.146Z,11.70
2022-11-17T10:44:30.680Z,14.63
2022-11-17T10:47:37.670Z,16.63
2022-11-17T10:50:28.377Z,16.42
2022-11-17T10:53:46.313Z,16.60
2022-11-17T10:56:44.722Z,19.50
2022-11-17T10:59:32.696Z,25.08
2022-11-17T11:02:31.034Z,19.35
2022-11-17T11:05:18.748Z,14.05
2022-11-17T11:08:17.138Z,14.75
2022-11-17T11:11:09.165Z,13.02
2022-11-17T11:14:45.263Z,12.40
2022-11-17T11:17:34.387Z,15.48
2022-11-17T11:20:27.055Z,11.93
2022-11-17T11:23:38.046Z,14.20
2022-11-17T11:26:45.903Z,10.90
2022-11-17T11:29:53.102Z,14.68
2022-11-17T11:32:54.909Z,17.55
2022-11-17T11:36:01.600Z,17.73
2022-11-17T11:38:58.960Z,20.08
2022-11-17T11:42:08.241Z,16.15
2022-11-17T11:45:10.484Z,15.27
2022-11-17T11:47:56.447Z,13.35
2022-11-17T11:50:51.278Z,12.82
2022-11-17T11:53:49.247Z,15.43
2022-11-17T11:56:46.217Z,16.02
2022-11-17T11:59:49.384Z,12.65
2022-11-17T12:02:56.103Z,19.55
2022-11-17T12:05:59.806Z,24.83
2022-11-17T12:08:51.791Z,16.23
2022-11-17T12:12:00.407Z,31.02
2022-11-17T12:15:29.068Z,19.42
2022-11-17T12:18:18.088Z,27.50
2022-11-17T12:21:11.964Z,34.50
2022-11-17T12:24:03.917Z,27.73
2022-11-17T12:26:49.770Z,22.63
2022-11-17T12:29:47.191Z,17.92
2022-11-17T12:32:45.099Z,19.42
2022-11-17T12:35:35.822Z,13.68
2022-11-17T12:38:21.701Z,15.05
2022-11-17T12:41:07.650Z,10.63
2022-11-17T12:43:53.553Z,10.57
2022-11-17T12:46:39.611Z,9.75
2022-11-17T12:49:35.540Z,12.82
2022-11-17T12:52:33.230Z,13.95
2022-11-17T12:55:24.965Z,11.38
2022-11-17T12:58:37.934Z,10.30
2022-11-17T13:01:44.982Z,19.10
2022-11-17T13:04:49.609Z,15.63
2022-11-17T13:07:36.060Z,7.63
2022-11-17T13:10:30.206Z,14.85
2022-11-17T13:13:23.711Z,10.38
2022-11-17T13:16:17.368Z,10.13
2022-11-17T13:19:03.997Z,6.65
2022-11-17T13:21:49.773Z,10.10
2022-11-17T13:24:37.513Z,10.27
2022-11-17T13:27:28.808Z,9.15
2022-11-17T13:30:29.293Z,13.55
2022-11-17T13:33:20.413Z,14.20
2022-11-17T13:36:24.983Z,10.68
2022-11-17T13:39:17.184Z,11.90
2022-11-17T13:42:04.244Z,17.13
2022-11-17T13:44:50.163Z,17.80
2022-11-17T13:47:36.144Z,14.73
2022-11-17T13:50:21.942Z,18.10
2022-11-17T13:53:10.729Z,15.82
2022-11-17T13:55:56.494Z,18.60
2022-11-17T13:58:42.444Z,46.50
2022-11-17T14:01:31.141Z,40.90
2022-11-17T14:04:23.547Z,34.10
2022-11-17T14:07:10.884Z,32.85
2022-11-17T14:10:21.273Z,30.35
2022-11-17T14:13:15.499Z,22.55
2022-11-17T14:16:01.439Z,34.65
2022-11-17T14:18:57.983Z,33.95
2022-11-17T14:22:24.959Z,26.05
2022-11-17T14:25:18.426Z,23.17
2022-11-17T14:28:04.255Z,14.18
2022-11-17T14:30:51.409Z,19.77
2022-11-17T14:33:37.254Z,17.85
2022-11-17T14:36:23.346Z,17.65
2022-11-17T14:39:18.575Z,40.65
2022-11-17T14:42:05.782Z,137.13
2022-11-17T14:44:51.435Z,77.25
2022-11-17T14:47:37.295Z,52.15
2022-11-17T14:50:23.411Z,37.17
2022-11-17T14:53:09.450Z,30.08
2022-11-17T14:55:55.584Z,30.88
2022-11-17T14:58:41.772Z,32.08
2022-11-17T15:01:31.208Z,36.55
2022-11-17T15:07:24.439Z,50.08
2022-11-17T15:10:10.950Z,52.58
2022-11-17T15:12:56.793Z,33.53
2022-11-17T15:15:42.712Z,33.92
2022-11-17T15:18:29.077Z,38.45
2022-11-17T15:21:16.800Z,37.30
2022-11-17T15:24:04.178Z,46.17
2022-11-17T15:26:50.586Z,49.60
2022-11-17T15:29:36.877Z,44.03
2022-11-17T15:32:22.717Z,38.80
2022-11-17T15:35:08.912Z,49.05
2022-11-17T15:37:54.826Z,47.45
2022-11-17T15:40:41.006Z,45.60
2022-11-17T15:43:31.505Z,41.72
2022-11-17T15:46:18.871Z,44.38
2022-11-17T15:49:04.607Z,56.65
2022-11-17T15:51:50.743Z,48.28
2022-11-17T15:54:36.840Z,54.08
2022-11-17T15:57:23.109Z,63.13
2022-11-17T16:00:10.063Z,56.05
2022-11-17T16:02:58.780Z,45.38
2022-11-17T16:05:45.296Z,41.40
2022-11-17T16:08:31.894Z,42.17
2022-11-17T16:11:18.066Z,43.05
2022-11-17T16:14:06.115Z,30.73
2022-11-17T16:16:52.098Z,28.65
2022-11-17T16:19:38.209Z,36.55
2022-11-17T16:22:24.186Z,35.97
2022-11-17T16:25:10.548Z,43.50
2022-11-17T16:27:56.646Z,45.88
2022-11-17T16:30:42.973Z,46.38
2022-11-17T16:33:28.944Z,43.28
2022-11-17T16:36:15.564Z,40.95
2022-11-17T16:39:02.437Z,40.58
2022-11-17T16:41:50.773Z,34.05
2022-11-17T16:44:36.707Z,38.15
2022-11-17T16:47:22.960Z,34.92
2022-11-17T16:50:09.666Z,37.60
2022-11-17T16:52:55.759Z,46.92
2022-11-17T16:55:41.802Z,29.17
2022-11-17T16:58:27.730Z,20.83
2022-11-17T17:01:15.488Z,19.13
2022-11-17T17:04:04.458Z,21.27
2022-11-17T17:06:50.460Z,17.98
2022-11-17T17:09:37.862Z,20.13
2022-11-17T17:12:23.774Z,27.90
2022-11-17T17:15:10.281Z,25.23
2022-11-17T17:17:56.293Z,38.95
2022-11-17T17:20:50.562Z,42.67
2022-11-17T17:23:36.615Z,33.75
2022-11-17T17:26:24.174Z,29.30
2022-11-17T17:29:11.107Z,33.78
2022-11-17T17:31:57.096Z,31.73
2022-11-17T17:34:43.221Z,43.17
2022-11-17T17:37:32.251Z,37.00
2022-11-17T17:40:18.129Z,41.83
2022-11-17T17:43:04.249Z,42.78
2022-11-17T17:45:50.466Z,25.80
2022-11-17T17:48:39.408Z,29.55
2022-11-17T17:51:27.146Z,46.75
2022-11-17T17:54:16.945Z,41.92
2022-11-17T17:57:02.763Z,39.95
2022-11-17T17:59:48.604Z,28.30
2022-11-17T18:02:35.070Z,31.77
2022-11-17T18:05:22.630Z,20.02
2022-11-17T18:08:08.607Z,22.35
2022-11-17T18:10:54.386Z,15.18
2022-11-17T18:13:42.515Z,21.00
2022-11-17T18:16:31.330Z,16.42
2022-11-17T18:19:18.315Z,22.65
2022-11-17T18:22:05.818Z,21.25
2022-11-17T18:24:55.948Z,25.77
2022-11-17T18:27:46.327Z,18.60
2022-11-17T18:30:32.855Z,27.77
2022-11-17T18:33:19.035Z,17.85
2022-11-17T18:36:07.715Z,22.48
2022-11-17T18:38:54.246Z,20.65
2022-11-17T18:41:40.240Z,19.02
2022-11-17T18:44:26.531Z,28.17
2022-11-17T18:47:13.709Z,26.45
2022-11-17T18:49:59.845Z,22.00
2022-11-17T18:52:45.562Z,20.17
2022-11-17T18:55:31.388Z,21.52
2022-11-17T18:58:17.042Z,22.05
2022-11-17T19:01:08.430Z,21.65
2022-11-17T19:03:56.016Z,13.82
2022-11-17T19:06:42.183Z,19.65
2022-11-17T19:09:28.330Z,23.63
2022-11-17T19:12:14.859Z,24.13
2022-11-17T19:15:01.142Z,20.80
2022-11-17T19:17:47.097Z,19.60
2022-11-17T19:20:33.178Z,24.77
2022-11-17T19:23:20.514Z,21.95
2022-11-17T19:26:14.623Z,18.58
2022-11-17T19:29:06.414Z,18.65
2022-11-17T19:31:54.870Z,21.30
2022-11-17T19:34:41.906Z,20.33
2022-11-17T19:37:27.847Z,16.60
2022-11-17T19:40:13.839Z,18.98
2022-11-17T19:42:59.994Z,17.75
2022-11-17T19:45:46.061Z,16.20
2022-11-17T19:48:32.473Z,19.75
2022-11-17T19:51:21.402Z,22.35
2022-11-17T19:54:14.313Z,22.02
2022-11-17T19:57:00.373Z,14.07
2022-11-17T19:59:46.339Z,21.67
2022-11-17T20:02:32.529Z,27.20
2022-11-17T20:05:18.093Z,32.85
2022-11-17T20:08:04.335Z,30.83
2022-11-17T20:10:50.345Z,29.48
2022-11-17T20:13:37.614Z,39.35
2022-11-17T20:16:27.731Z,23.88
2022-11-17T20:19:14.216Z,30.85
2022-11-17T20:22:00.519Z,21.13
2022-11-17T20:24:46.531Z,20.02
2022-11-17T20:27:32.868Z,26.02
2022-11-17T20:30:19.271Z,16.58
2022-11-17T20:33:05.571Z,24.42
2022-11-17T20:35:51.702Z,27.85
2022-11-17T20:38:37.761Z,22.75
2022-11-17T20:41:24.316Z,19.85
2022-11-17T20:44:24.041Z,19.60
2022-11-17T20:47:12.882Z,31.25
2022-11-17T20:49:58.768Z,25.38
2022-11-17T20:52:44.953Z,27.23
2022-11-17T20:55:31.044Z,22.02
2022-11-17T20:58:16.709Z,28.48
2022-11-17T21:01:11.879Z,21.40
2022-11-17T21:03:58.054Z,19.80
2022-11-17T21:06:44.261Z,20.63
2022-11-17T21:09:30.288Z,18.73
2022-11-17T21:12:16.168Z,19.23
2022-11-17T21:15:02.299Z,24.52
2022-11-17T21:18:06.627Z,20.45
2022-11-17T21:20:56.127Z,21.08
2022-11-17T21:23:44.360Z,28.65
2022-11-17T21:26:31.227Z,22.83
2022-11-17T21:29:17.611Z,20.08
2022-11-17T21:32:03.952Z,20.13
2022-11-17T21:34:50.501Z,19.38
2022-11-17T21:37:36.446Z,20.50
2022-11-17T21:40:23.461Z,19.27
2022-11-17T21:43:09.319Z,17.95
2022-11-17T21:45:55.151Z,31.95
2022-11-17T21:48:41.258Z,21.52
2022-11-17T21:51:35.122Z,26.08
2022-11-17T21:54:22.321Z,23.08
2022-11-17T21:57:09.260Z,19.30
2022-11-17T21:59:54.950Z,23.83
2022-11-17T22:02:40.658Z,23.40
2022-11-17T22:05:26.454Z,21.10
2022-11-17T22:08:12.537Z,27.20
2022-11-17T22:11:03.306Z,30.70
2022-11-17T22:13:49.212Z,25.27
2022-11-17T22:16:40.335Z,36.25
2022-11-17T22:19:28.028Z,28.02
2022-11-17T22:22:15.289Z,40.20
2022-11-17T22:25:22.726Z,15.77
2022-11-17T22:28:09.377Z,21.85
2022-11-17T22:30:55.617Z,21.75
2022-11-17T22:33:45.951Z,23.88
2022-11-17T22:36:32.374Z,19.00
2022-11-17T22:39:18.594Z,18.42
2022-11-17T22:42:05.093Z,21.63
2022-11-17T22:44:51.297Z,19.83
2022-11-17T22:47:40.105Z,17.63
2022-11-17T22:50:26.220Z,23.05
2022-11-17T22:53:12.243Z,18.20
2022-11-17T22:56:10.477Z,16.38
2022-11-17T22:58:59.607Z,15.02
2022-11-17T23:01:45.702Z,21.27
2022-11-17T23:04:31.845Z,29.48
2022-11-17T23:07:17.749Z,25.52
2022-11-17T23:10:04.062Z,17.75
2022-11-17T23:12:50.857Z,21.15
2022-11-17T23:15:38.981Z,20.35
2022-11-17T23:18:25.715Z,21.98
2022-11-17T23:21:12.036Z,22.48
2022-11-17T23:23:58.115Z,18.00
2022-11-17T23:26:44.189Z,24.17
2022-11-17T23:29:30.206Z,25.17
2022-11-17T23:32:16.414Z,16.40
2022-11-17T23:35:02.098Z,18.35
2022-11-17T23:37:48.331Z,16.45
2022-11-17T23:40:34.383Z,19.75
2022-11-17T23:43:20.619Z,27.05
2022-11-17T23:46:09.749Z,35.58
2022-11-17T23:48:59.151Z,15.43
2022-11-17T23:51:45.067Z,18.73
2022-11-17T23:54:30.983Z,15.40
2022-11-17T23:57:17.204Z,18.50
